Time;durP1;ratioP1;P1;durP2;ratioP2;P2;SDS_P1;SDS_P2;PMS_P1;PMS_P2;Temp;Humidity;BMP_temperature;BMP_pressure;BME280_temperature;BME280_humidity;BME280_pressure;Samples;Min_cycle;Max_cycle;Signal;HPM_P1;HPM_P2
2023/01/11 00:01:22;;;;;;;2.30;1.07;;;6.80;1.00;;;;;;5058669;28;20265;-37
2023/01/11 00:03:48;;;;;;;3.90;1.27;;;6.80;1.00;;;;;;5057755;28;20213;-37
2023/01/11 00:06:14;;;;;;;2.10;1.40;;;6.90;1.00;;;;;;5057450;28;20182;-36
2023/01/11 00:08:39;;;;;;;2.10;1.50;;;6.80;1.00;;;;;;5057375;28;20254;-36
2023/01/11 00:11:13;;;;;;;2.53;1.20;;;6.80;10.00;;;;;;5057462;28;20268;-36
2023/01/11 00:13:38;;;;;;;3.27;1.27;;;6.80;34.00;;;;;;5058123;28;20241;-36
2023/01/11 00:16:05;;;;;;;4.57;1.23;;;6.90;58.30;;;;;;5058521;28;20465;-36
2023/01/11 00:18:31;;;;;;;2.60;1.20;;;6.90;99.90;;;;;;5057798;28;20220;-35
2023/01/11 00:20:59;;;;;;;2.93;1.13;;;6.90;99.90;;;;;;5058603;28;20420;-36
2023/01/11 00:23:25;;;;;;;3.90;1.33;;;6.90;99.90;;;;;;5058682;28;20589;-35
2023/01/11 00:25:50;;;;;;;4.83;1.50;;;6.90;99.90;;;;;;5059197;28;20435;-34
2023/01/11 00:28:16;;;;;;;2.60;1.47;;;6.90;99.90;;;;;;5058956;28;20177;-36
2023/01/11 00:30:41;;;;;;;1.90;0.90;;;7.00;99.90;;;;;;5057460;28;20184;-36
2023/01/11 00:33:10;;;;;;;2.30;1.30;;;7.00;99.90;;;;;;5058000;28;20213;-35
2023/01/11 00:35:35;;;;;;;2.00;0.90;;;7.00;99.90;;;;;;5058073;28;20255;-35
2023/01/11 00:38:01;;;;;;;3.43;1.10;;;7.00;1.00;;;;;;5057911;28;20424;-36
2023/01/11 00:40:27;;;;;;;3.20;1.00;;;7.00;1.00;;;;;;5057837;28;20257;-36
2023/01/11 00:48:21;;;;;;;2.30;1.00;;;7.10;1.00;;;;;;5057922;28;20551;-36
2023/01/11 00:50:47;;;;;;;1.53;0.93;;;7.20;1.00;;;;;;5058865;28;20452;-36
2023/01/11 00:53:13;;;;;;;1.50;0.93;;;7.10;1.00;;;;;;5058405;28;20326;-36
2023/01/11 00:55:38;;;;;;;2.13;1.10;;;7.20;1.00;;;;;;5058444;28;20256;-37
2023/01/11 00:58:04;;;;;;;2.13;1.00;;;7.10;1.00;;;;;;5058320;28;20765;-36
2023/01/11 01:00:30;;;;;;;2.83;1.20;;;7.10;30.00;;;;;;5059118;28;20170;-36
2023/01/11 01:02:56;;;;;;;1.80;0.90;;;7.10;86.30;;;;;;5058683;28;20431;-36
2023/01/11 01:05:22;;;;;;;2.23;0.90;;;7.10;99.90;;;;;;5058983;28;20247;-37
2023/01/11 01:07:48;;;;;;;3.00;1.00;;;7.10;99.90;;;;;;5058084;28;20174;-36
2023/01/11 01:10:16;;;;;;;1.20;0.80;;;7.10;99.90;;;;;;5059050;28;20182;-37
2023/01/11 01:15:26;;;;;;;2.20;0.90;;;7.00;99.90;;;;;;5058237;28;20411;-37
2023/01/11 01:17:53;;;;;;;2.00;1.20;;;7.10;99.90;;;;;;5058858;28;20408;-37
2023/01/11 01:20:21;;;;;;;1.90;1.00;;;7.10;99.90;;;;;;5058710;28;20424;-36
2023/01/11 01:22:47;;;;;;;3.13;1.20;;;7.00;99.90;;;;;;5058183;28;20506;-36
2023/01/11 01:25:13;;;;;;;2.20;1.30;;;7.00;99.90;;;;;;5057229;28;20413;-36
2023/01/11 01:27:39;;;;;;;3.77;0.90;;;7.00;1.00;;;;;;5056410;28;20420;-36
2023/01/11 01:30:05;;;;;;;2.50;1.00;;;7.00;1.00;;;;;;5057879;28;20454;-37
2023/01/11 01:32:31;;;;;;;1.57;0.87;;;7.00;1.00;;;;;;5057635;28;20217;-36
2023/01/11 01:34:56;;;;;;;3.63;1.20;;;7.00;1.00;;;;;;5057821;28;20428;-37
2023/01/11 01:37:22;;;;;;;1.40;0.80;;;6.90;1.00;;;;;;5057948;28;20181;-36
2023/01/11 01:39:48;;;;;;;2.07;1.00;;;7.00;1.00;;;;;;5058195;28;20174;-36
2023/01/11 01:42:14;;;;;;;3.70;0.90;;;7.00;1.00;;;;;;5058290;28;20178;-37
2023/01/11 01:44:58;;;;;;;2.07;0.70;;;7.00;28.30;;;;;;5057538;28;20240;-36
2023/01/11 01:47:29;;;;;;;2.53;1.13;;;6.90;64.80;;;;;;5058982;28;20803;-36
2023/01/11 01:49:56;;;;;;;1.20;0.60;;;6.90;99.90;;;;;;5062824;28;20428;-36
2023/01/11 01:52:27;;;;;;;2.47;0.87;;;6.90;99.90;;;;;;5061727;28;20459;-36
2023/01/11 01:54:54;;;;;;;2.30;0.97;;;6.90;99.90;;;;;;5063205;28;20428;-37
2023/01/11 01:57:22;;;;;;;2.50;0.90;;;6.90;99.90;;;;;;5062874;28;20404;-36
2023/01/11 01:59:50;;;;;;;1.80;1.23;;;6.90;99.90;;;;;;5062349;28;20431;-36
2023/01/11 02:02:17;;;;;;;2.10;1.03;;;6.90;99.90;;;;;;5061083;28;20835;-37
2023/01/11 02:04:44;;;;;;;1.43;0.70;;;6.90;1.00;;;;;;5060403;28;20490;-36
2023/01/11 02:07:18;;;;;;;1.80;1.10;;;6.90;1.00;;;;;;5060476;28;20827;-37
2023/01/11 02:10:03;;;;;;;2.90;1.20;;;6.90;1.00;;;;;;5060250;28;20431;-36
2023/01/11 02:12:31;;;;;;;1.87;1.00;;;6.90;1.00;;;;;;5060932;28;20455;-36
2023/01/11 02:15:02;;;;;;;1.70;1.00;;;7.00;1.00;;;;;;5059288;28;20712;-37
2023/01/11 02:17:27;;;;;;;3.17;1.13;;;7.00;28.20;;;;;;5058202;28;20443;-36
2023/01/11 02:20:28;;;;;;;2.50;0.80;;;7.00;99.90;;;;;;5058956;28;20519;-35
2023/01/11 02:23:31;;;;;;;2.70;0.70;;;7.00;99.90;;;;;;5092139;28;20195;-37
2023/01/11 02:26:03;;;;;;;4.20;0.80;;;7.00;99.90;;;;;;5080436;28;20701;-36
2023/01/11 02:29:16;;;;;;;2.20;0.83;;;7.10;99.90;;;;;;5080164;28;20410;-37
2023/01/11 02:32:20;;;;;;;1.53;0.70;;;7.10;1.00;;;;;;5045448;28;20423;-37
2023/01/11 02:35:34;;;;;;;1.50;0.70;;;7.20;1.00;;;;;;5050265;28;20772;-37
2023/01/11 02:38:08;;;;;;;1.83;1.17;;;7.20;1.00;;;;;;5064224;28;20446;-37
2023/01/11 02:40:55;;;;;;;1.83;0.80;;;7.20;1.00;;;;;;5081856;28;20391;-37
2023/01/11 02:46:38;;;;;;;2.03;0.70;;;7.20;1.00;;;;;;5082570;28;20458;-36
2023/01/11 02:49:23;;;;;;;1.10;0.70;;;7.20;1.00;;;;;;5082189;28;20496;-37
2023/01/11 02:52:06;;;;;;;2.10;0.70;;;7.20;1.00;;;;;;5081139;28;20431;-37
2023/01/11 02:54:33;;;;;;;0.90;0.50;;;7.20;1.00;;;;;;5083189;28;20520;-37
2023/01/11 02:56:59;;;;;;;1.30;0.70;;;7.20;1.00;;;;;;5079975;28;20839;-35
2023/01/11 02:59:32;;;;;;;2.13;0.60;;;7.20;26.20;;;;;;5079738;28;20415;-37
2023/01/11 03:01:58;;;;;;;1.57;0.70;;;7.20;91.30;;;;;;5080066;28;20459;-37
2023/01/11 03:04:28;;;;;;;1.23;0.50;;;7.30;99.90;;;;;;5079440;28;20450;-36
2023/01/11 03:07:02;;;;;;;1.53;0.70;;;7.20;99.90;;;;;;5080170;28;20188;-35
2023/01/11 03:09:36;;;;;;;1.50;0.70;;;7.20;99.90;;;;;;5079887;28;20686;-37
2023/01/11 03:15:48;;;;;;;1.00;0.50;;;7.30;1.00;;;;;;5079157;28;20682;-36
2023/01/11 03:18:39;;;;;;;2.40;1.07;;;7.30;1.00;;;;;;5078361;28;20423;-37
2023/01/11 03:21:13;;;;;;;1.27;0.67;;;7.30;1.00;;;;;;5078942;28;20415;-37
2023/01/11 03:23:59;;;;;;;0.80;0.40;;;7.40;1.00;;;;;;5079399;28;20409;-36
2023/01/11 03:26:48;;;;;;;1.30;0.60;;;7.40;1.00;;;;;;5039105;28;20458;-37
2023/01/11 03:29:39;;;;;;;1.20;0.67;;;7.40;1.00;;;;;;5082401;28;20489;-37
2023/01/11 03:32:27;;;;;;;3.37;1.03;;;7.40;1.00;;;;;;5081623;28;20431;-37
2023/01/11 03:35:14;;;;;;;2.80;0.80;;;7.40;1.00;;;;;;5080412;28;20443;-36
2023/01/11 03:37:46;;;;;;;2.23;0.70;;;7.40;1.00;;;;;;5078507;28;20415;-37
2023/01/11 03:40:25;;;;;;;1.57;0.60;;;7.50;1.00;;;;;;5078895;28;20426;-36
2023/01/11 03:43:11;;;;;;;1.07;0.60;;;7.50;1.00;;;;;;5077477;28;20415;-36
2023/01/11 03:45:59;;;;;;;3.33;0.90;;;7.50;1.00;;;;;;5078173;28;20714;-36
2023/01/11 03:48:28;;;;;;;2.00;0.73;;;7.50;37.00;;;;;;5037823;28;20705;-37
2023/01/11 03:50:55;;;;;;;0.90;0.50;;;7.50;99.90;;;;;;5035777;28;20417;-38
2023/01/11 03:53:23;;;;;;;2.20;0.67;;;7.60;60.00;;;;;;5036144;28;20460;-36
2023/01/11 03:55:55;;;;;;;1.90;0.90;;;7.60;35.60;;;;;;5019440;28;20851;-39
2023/01/11 03:58:21;;;;;;;1.37;0.60;;;7.60;99.90;;;;;;5035442;28;20437;-36
2023/01/11 04:00:47;;;;;;;2.80;0.70;;;7.60;99.90;;;;;;5035289;28;20425;-37
2023/01/11 04:03:13;;;;;;;2.10;0.70;;;7.60;99.90;;;;;;5036299;28;20561;-37
2023/01/11 04:05:42;;;;;;;1.10;0.70;;;7.50;99.90;;;;;;5036723;28;20464;-36
2023/01/11 04:08:09;;;;;;;1.43;0.50;;;7.50;99.90;;;;;;5036217;28;20901;-37
2023/01/11 04:10:35;;;;;;;2.00;0.60;;;7.50;99.90;;;;;;5036945;28;20441;-37
2023/01/11 04:13:01;;;;;;;2.33;0.70;;;7.50;99.90;;;;;;5037715;28;20534;-37
2023/01/11 04:15:29;;;;;;;1.50;1.07;;;7.50;99.90;;;;;;5037713;28;20436;-36
2023/01/11 04:17:55;;;;;;;1.50;0.70;;;7.60;99.90;;;;;;5038767;28;20179;-37
2023/01/11 04:20:20;;;;;;;0.97;0.67;;;7.60;1.00;;;;;;5037202;28;20841;-37
2023/01/11 04:22:46;;;;;;;2.73;0.50;;;7.60;1.00;;;;;;5037537;28;20417;-36
2023/01/11 04:25:12;;;;;;;2.07;0.50;;;7.60;1.00;;;;;;5038722;28;20264;-36
2023/01/11 04:27:37;;;;;;;1.77;0.50;;;7.60;1.00;;;;;;5038433;28;20209;-36
2023/01/11 04:30:03;;;;;;;2.03;0.63;;;7.60;1.00;;;;;;5037625;28;20201;-36
2023/01/11 04:32:29;;;;;;;1.20;0.50;;;7.60;17.20;;;;;;5037098;28;20228;-36
2023/01/11 04:34:55;;;;;;;1.03;0.50;;;7.60;99.90;;;;;;5037046;28;20508;-37
2023/01/11 04:37:20;;;;;;;0.70;0.30;;;7.60;99.90;;;;;;5036207;28;20183;-36
2023/01/11 04:39:46;;;;;;;1.20;0.60;;;7.60;99.90;;;;;;5035179;28;20253;-36
2023/01/11 04:42:17;;;;;;;0.90;0.40;;;7.50;99.90;;;;;;5035201;28;20170;-37
2023/01/11 04:44:45;;;;;;;1.00;0.50;;;7.60;1.00;;;;;;5034096;28;20470;-37
2023/01/11 04:47:10;;;;;;;1.10;0.60;;;7.60;1.00;;;;;;5057604;28;20554;-37
2023/01/11 04:49:36;;;;;;;1.00;0.50;;;7.60;1.00;;;;;;5075166;28;20535;-37
2023/01/11 04:52:02;;;;;;;0.90;0.50;;;7.60;1.00;;;;;;5076642;28;20588;-37
2023/01/11 04:54:27;;;;;;;1.10;0.40;;;7.60;1.00;;;;;;5076545;28;20169;-37
2023/01/11 04:57:05;;;;;;;1.73;0.63;;;7.70;1.00;;;;;;5076128;28;20188;-36
2023/01/11 04:59:31;;;;;;;1.30;0.50;;;7.70;1.00;;;;;;5075816;28;20187;-36
2023/01/11 05:01:57;;;;;;;1.47;0.53;;;7.70;8.00;;;;;;5075192;28;20427;-36
2023/01/11 05:04:22;;;;;;;1.30;0.60;;;7.70;25.90;;;;;;5074652;28;20261;-36
2023/01/11 05:06:48;;;;;;;0.93;0.50;;;7.70;55.90;;;;;;5072540;28;20181;-37
2023/01/11 05:09:16;;;;;;;0.90;0.40;;;7.80;94.00;;;;;;5073409;28;20429;-37
2023/01/11 05:11:42;;;;;;;1.73;0.50;;;7.80;69.90;;;;;;5073921;28;20173;-37
2023/01/11 05:14:07;;;;;;;0.80;0.40;;;7.80;99.90;;;;;;5073591;28;20473;-37
2023/01/11 05:16:33;;;;;;;1.73;0.60;;;7.70;99.90;;;;;;5073627;28;20700;-37
2023/01/11 05:19:00;;;;;;;0.90;0.50;;;7.70;99.90;;;;;;5072976;28;20208;-36
2023/01/11 05:21:32;;;;;;;1.30;0.60;;;7.70;99.90;;;;;;5060122;28;20185;-37
2023/01/11 05:23:59;;;;;;;1.00;0.50;;;7.70;99.90;;;;;;5055531;28;20412;-37
2023/01/11 05:26:27;;;;;;;1.77;0.53;;;7.70;99.90;;;;;;5055901;28;20505;-37
2023/01/11 05:28:54;;;;;;;1.70;0.43;;;7.70;99.90;;;;;;5054720;28;20438;-37
2023/01/11 05:31:20;;;;;;;0.80;0.43;;;7.70;99.90;;;;;;5055791;28;20460;-37
2023/01/11 05:33:46;;;;;;;0.80;0.47;;;7.70;99.90;;;;;;5056294;28;20470;-37
2023/01/11 05:36:14;;;;;;;1.60;0.50;;;7.70;99.90;;;;;;5054883;28;20440;-37
2023/01/11 05:38:40;;;;;;;1.90;0.50;;;7.70;99.90;;;;;;5055790;28;20181;-38
2023/01/11 05:41:09;;;;;;;0.93;0.50;;;7.70;99.90;;;;;;5056732;28;20412;-37
2023/01/11 05:46:21;;;;;;;1.30;0.80;;;7.70;99.90;;;;;;5052391;28;20482;-36
2023/01/11 05:48:46;;;;;;;1.33;0.70;;;7.70;99.90;;;;;;5051463;28;20497;-37
2023/01/11 05:51:12;;;;;;;1.03;0.63;;;7.70;99.90;;;;;;5055055;28;20539;-36
2023/01/11 05:53:38;;;;;;;0.97;0.63;;;7.70;99.90;;;;;;5054759;28;20474;-37
2023/01/11 05:56:04;;;;;;;1.13;0.70;;;7.70;99.90;;;;;;5052531;28;20458;-37
2023/01/11 05:58:29;;;;;;;1.83;0.60;;;7.70;99.90;;;;;;5051319;28;20237;-36
2023/01/11 06:00:55;;;;;;;2.43;0.70;;;7.70;99.90;;;;;;5050342;28;20182;-37
2023/01/11 06:03:23;;;;;;;0.90;0.60;;;7.70;99.90;;;;;;5052660;28;20178;-37
2023/01/11 06:05:53;;;;;;;1.47;0.60;;;7.80;99.90;;;;;;5052688;28;20475;-37
2023/01/11 06:08:19;;;;;;;1.10;0.73;;;7.80;99.90;;;;;;5051277;28;20521;-36
2023/01/11 06:10:52;;;;;;;1.40;0.70;;;7.80;99.90;;;;;;5051398;28;20470;-37
2023/01/11 06:13:27;;;;;;;1.27;0.80;;;7.80;99.90;;;;;;5051104;28;20463;-37
2023/01/11 06:16:04;;;;;;;1.10;0.67;;;7.80;99.90;;;;;;5051560;28;20420;-36
2023/01/11 06:18:35;;;;;;;1.13;0.53;;;7.80;99.90;;;;;;5052325;28;20489;-37
2023/01/11 06:21:02;;;;;;;1.90;0.60;;;7.80;99.90;;;;;;5051578;28;20736;-37
2023/01/11 06:23:30;;;;;;;1.00;0.50;;;7.80;99.90;;;;;;5052395;28;20419;-37
2023/01/11 06:25:59;;;;;;;1.40;0.70;;;7.90;99.90;;;;;;5049910;28;20761;-37
2023/01/11 06:28:24;;;;;;;1.60;0.67;;;7.90;99.90;;;;;;5050356;28;20440;-36
2023/01/11 06:30:52;;;;;;;1.43;0.80;;;7.90;99.90;;;;;;5046036;28;20749;-37
2023/01/11 06:33:17;;;;;;;0.90;0.60;;;7.90;99.90;;;;;;5046957;28;20296;-37
2023/01/11 06:35:43;;;;;;;3.20;0.90;;;7.90;99.90;;;;;;5049842;28;20530;-36
2023/01/11 06:38:11;;;;;;;1.00;0.60;;;7.90;99.90;;;;;;5047643;28;20199;-37
2023/01/11 06:40:38;;;;;;;0.90;0.60;;;7.90;99.90;;;;;;5051099;28;20182;-37
2023/01/11 06:43:04;;;;;;;1.00;0.60;;;7.90;99.90;;;;;;5053084;28;20412;-37
2023/01/11 06:45:30;;;;;;;2.30;0.70;;;7.90;99.90;;;;;;5052212;28;20505;-35
2023/01/11 06:47:56;;;;;;;1.17;0.70;;;7.90;99.90;;;;;;5048001;28;20879;-37
2023/01/11 06:50:22;;;;;;;1.10;0.80;;;7.90;99.90;;;;;;5049296;28;20510;-37
2023/01/11 06:52:54;;;;;;;1.37;0.87;;;7.90;99.90;;;;;;5047435;28;20263;-37
2023/01/11 06:55:21;;;;;;;1.80;0.73;;;8.00;99.90;;;;;;5047482;28;20428;-36
2023/01/11 06:57:46;;;;;;;1.30;0.60;;;8.00;99.90;;;;;;5048682;28;20431;-37
2023/01/11 07:00:13;;;;;;;1.03;0.50;;;8.00;99.90;;;;;;5048595;28;20483;-45
2023/01/11 07:02:38;;;;;;;1.53;0.70;;;8.00;99.90;;;;;;5047935;28;20185;-36
2023/01/11 07:05:04;;;;;;;0.90;0.50;;;8.00;99.90;;;;;;5050973;28;20498;-37
2023/01/11 07:07:30;;;;;;;1.23;0.50;;;8.00;99.90;;;;;;5054604;28;20186;-37
2023/01/11 07:09:55;;;;;;;1.10;0.70;;;8.00;99.90;;;;;;5054039;28;20423;-37
2023/01/11 07:12:21;;;;;;;1.33;0.70;;;8.00;99.90;;;;;;5053209;28;20304;-36
2023/01/11 07:15:03;;;;;;;3.03;1.10;;;8.00;99.90;;;;;;5053285;28;20181;-37
2023/01/11 07:17:29;;;;;;;1.57;0.50;;;8.00;99.90;;;;;;5055257;28;20289;-36
2023/01/11 07:19:55;;;;;;;1.23;0.70;;;8.10;52.90;;;;;;5040731;28;20779;-37
2023/01/11 07:22:24;;;;;;;1.13;0.70;;;8.10;18.50;;;;;;5038638;28;20181;-36
2023/01/11 07:24:50;;;;;;;1.53;0.70;;;8.10;4.00;;;;;;5054175;28;20239;-36
2023/01/11 07:27:16;;;;;;;1.10;0.60;;;8.10;1.00;;;;;;5055898;28;20408;-36
2023/01/11 07:29:41;;;;;;;2.70;0.67;;;8.10;1.00;;;;;;5057196;28;20432;-37
2023/01/11 07:32:09;;;;;;;1.00;0.60;;;8.10;1.00;;;;;;5055845;28;20239;-37
2023/01/11 07:34:35;;;;;;;1.10;0.63;;;8.10;1.00;;;;;;5056695;28;20212;-36
2023/01/11 07:37:00;;;;;;;1.20;0.83;;;8.20;1.00;;;;;;5057973;28;20452;-37
2023/01/11 07:39:26;;;;;;;1.20;0.80;;;8.20;1.00;;;;;;5056859;28;20416;-37
2023/01/11 07:44:36;;;;;;;1.00;0.70;;;8.30;1.00;;;;;;5054839;28;20234;-37
2023/01/11 07:47:01;;;;;;;0.93;0.63;;;8.40;1.00;;;;;;5054708;28;20476;-37
2023/01/11 07:49:27;;;;;;;1.20;0.73;;;8.40;1.00;;;;;;5055280;28;20192;-37
2023/01/11 07:51:53;;;;;;;1.43;0.70;;;8.50;99.90;;;;;;5056144;28;20185;-37
2023/01/11 07:54:18;;;;;;;1.10;0.70;;;8.50;99.90;;;;;;5056948;28;20201;-37
2023/01/11 07:56:44;;;;;;;1.40;0.90;;;8.60;99.90;;;;;;5055288;28;20273;-37
2023/01/11 07:59:10;;;;;;;1.30;0.80;;;8.60;99.90;;;;;;5054389;28;20189;-36
2023/01/11 08:01:36;;;;;;;1.90;1.00;;;8.70;99.90;;;;;;5055465;28;20422;-37
2023/01/11 08:04:02;;;;;;;1.70;0.53;;;8.80;32.80;;;;;;5054888;28;20874;-37
2023/01/11 08:06:28;;;;;;;1.10;0.80;;;8.80;18.80;;;;;;5054006;28;20186;-37
2023/01/11 08:08:53;;;;;;;1.00;0.70;;;8.90;1.00;;;;;;5054305;28;20435;-37
2023/01/11 08:16:47;;;;;;;2.17;0.90;;;9.10;99.90;;;;;;5031691;28;20840;-37
2023/01/11 08:19:13;;;;;;;1.50;0.80;;;9.10;99.90;;;;;;5032738;28;20421;-36
2023/01/11 08:21:39;;;;;;;1.10;0.60;;;9.20;99.90;;;;;;5032404;28;20174;-36
2023/01/11 08:24:05;;;;;;;1.17;0.73;;;9.20;99.90;;;;;;5035747;28;20187;-36
2023/01/11 08:26:31;;;;;;;1.00;0.60;;;9.30;99.90;;;;;;5035730;28;20558;-37
2023/01/11 08:28:56;;;;;;;2.37;0.87;;;9.40;20.60;;;;;;5033996;28;20413;-36
2023/01/11 08:31:23;;;;;;;2.03;0.90;;;9.40;1.00;;;;;;5033719;28;20195;-37
2023/01/11 08:33:50;;;;;;;3.30;1.00;;;9.50;1.00;;;;;;5034503;28;20202;-37
2023/01/11 08:36:16;;;;;;;1.20;0.70;;;9.50;1.00;;;;;;5033480;28;20433;-37
2023/01/11 08:38:42;;;;;;;1.53;0.80;;;9.60;1.00;;;;;;5040191;28;20430;-37
2023/01/11 08:41:13;;;;;;;2.70;0.90;;;9.60;1.00;;;;;;5055419;28;20188;-37
2023/01/11 08:43:40;;;;;;;1.57;0.67;;;9.70;99.90;;;;;;5055809;28;20420;-39
2023/01/11 08:46:06;;;;;;;1.47;0.60;;;9.70;99.90;;;;;;5053530;28;20432;-37
2023/01/11 08:48:32;;;;;;;1.30;0.87;;;9.70;99.90;;;;;;5051710;28;20447;-37
2023/01/11 08:50:57;;;;;;;1.67;0.70;;;9.70;99.90;;;;;;5052889;28;20436;-37
2023/01/11 08:53:23;;;;;;;1.00;0.70;;;9.70;99.90;;;;;;5052976;28;20304;-37
2023/01/11 08:55:50;;;;;;;3.17;0.80;;;9.80;99.90;;;;;;5053084;28;20190;-37
2023/01/11 08:58:16;;;;;;;1.00;0.50;;;9.80;99.90;;;;;;5053604;28;20416;-37
2023/01/11 09:00:42;;;;;;;2.30;0.93;;;9.80;99.90;;;;;;5052582;28;20424;-35
2023/01/11 09:03:10;;;;;;;1.20;0.70;;;9.90;99.90;;;;;;5054025;28;20178;-36
2023/01/11 09:05:37;;;;;;;1.00;0.60;;;9.90;91.20;;;;;;5053949;28;20483;-36
2023/01/11 09:08:03;;;;;;;1.73;0.60;;;10.00;17.40;;;;;;5054939;28;20438;-37
2023/01/11 09:10:28;;;;;;;1.27;0.70;;;10.00;1.00;;;;;;5056165;28;20450;-36
2023/01/11 09:12:55;;;;;;;1.30;0.90;;;10.00;1.00;;;;;;5056413;28;20543;-37
2023/01/11 09:15:21;;;;;;;1.50;0.90;;;10.10;1.00;;;;;;5054121;28;21161;-38
2023/01/11 09:17:47;;;;;;;1.13;0.67;;;10.10;1.00;;;;;;5053497;28;20408;-36
2023/01/11 09:20:13;;;;;;;4.03;1.10;;;10.10;1.00;;;;;;5053840;28;20428;-37
2023/01/11 09:22:39;;;;;;;1.40;0.70;;;10.30;99.90;;;;;;5052110;28;20830;-37
2023/01/11 09:25:06;;;;;;;2.17;0.60;;;10.70;1.00;;;;;;5053883;28;20477;-36
2023/01/11 09:27:31;;;;;;;2.70;0.77;;;11.10;99.90;;;;;;5054288;28;20420;-35
2023/01/11 09:29:57;;;;;;;1.20;0.70;;;11.60;6.00;;;;;;5056437;28;20978;-37
2023/01/11 09:32:23;;;;;;;1.23;1.00;;;11.90;1.00;;;;;;5055259;28;20205;-38
2023/01/11 09:34:52;;;;;;;0.90;0.53;;;12.20;1.00;;;;;;5051419;28;20542;-36
2023/01/11 09:37:18;;;;;;;2.30;0.70;;;12.50;99.90;;;;;;5053136;28;20404;-36
2023/01/11 09:39:45;;;;;;;1.57;0.70;;;12.80;93.50;;;;;;5054304;28;20408;-35
2023/01/11 09:42:37;;;;;;;1.27;0.70;;;13.00;99.90;;;;;;5053976;28;20416;-36
2023/01/11 09:45:13;;;;;;;1.53;0.80;;;13.20;39.90;;;;;;5052055;28;20428;-37
2023/01/11 09:48:10;;;;;;;1.20;0.60;;;13.10;99.90;;;;;;5051057;28;20529;-37
2023/01/11 09:50:42;;;;;;;1.37;0.90;;;12.90;99.90;;;;;;5054459;28;20905;-37
2023/01/11 09:53:21;;;;;;;1.37;0.83;;;12.60;1.00;;;;;;5053877;28;20460;-37
2023/01/11 09:55:50;;;;;;;1.30;0.90;;;12.30;1.00;;;;;;5053730;28;20434;-37
2023/01/11 09:58:33;;;;;;;1.00;0.60;;;12.10;1.00;;;;;;5052229;28;20423;-38
2023/01/11 10:01:12;;;;;;;1.97;0.70;;;11.90;1.00;;;;;;5053909;28;20479;-37
2023/01/11 10:03:38;;;;;;;1.40;0.80;;;11.70;67.80;;;;;;5054397;28;20703;-37
2023/01/11 10:06:41;;;;;;;1.50;1.03;;;11.50;99.90;;;;;;5053867;28;20530;-37
2023/01/11 10:09:28;;;;;;;2.50;0.90;;;11.40;99.90;;;;;;5054403;28;20294;-37
2023/01/11 10:12:15;;;;;;;1.53;0.83;;;11.30;99.90;;;;;;5056016;28;20805;-37
2023/01/11 10:14:59;;;;;;;1.80;0.80;;;11.20;1.00;;;;;;5056364;28;20427;-37
2023/01/11 10:17:54;;;;;;;1.27;0.70;;;11.20;1.00;;;;;;5059175;28;20408;-37
2023/01/11 10:20:29;;;;;;;1.30;0.60;;;11.10;1.00;;;;;;5059403;28;20440;-37
2023/01/11 10:23:05;;;;;;;3.60;0.77;;;11.10;1.00;;;;;;5057982;28;20424;-38
2023/01/11 10:25:40;;;;;;;3.53;0.80;;;11.10;1.00;;;;;;5039924;28;20550;-37
2023/01/11 10:28:21;;;;;;;1.00;0.63;;;11.10;20.30;;;;;;5057815;28;20506;-37
2023/01/11 10:42:20;;;;;;;1.67;0.77;;;11.20;7.90;;;;;;4995150;28;20423;-37
2023/01/11 10:44:51;;;;;;;1.97;0.70;;;11.20;16.40;;;;;;5056609;28;21037;-36
2023/01/11 10:47:22;;;;;;;1.67;0.87;;;11.20;12.80;;;;;;5055310;28;20464;-37
2023/01/11 10:49:55;;;;;;;1.63;0.80;;;11.20;25.30;;;;;;5056563;28;20408;-38
2023/01/11 10:52:32;;;;;;;2.17;1.20;;;11.20;48.50;;;;;;5056734;28;20409;-37
2023/01/11 10:54:59;;;;;;;1.33;1.00;;;11.20;96.60;;;;;;5058180;28;20470;-37
2023/01/11 10:58:04;;;;;;;1.63;1.20;;;11.20;99.90;;;;;;5057802;28;20408;-37
2023/01/11 11:00:50;;;;;;;1.47;1.13;;;11.20;99.90;;;;;;5058235;28;20421;-37
2023/01/11 11:03:41;;;;;;;1.20;0.80;;;11.20;99.90;;;;;;5057549;28;20408;-37
2023/01/11 11:06:33;;;;;;;1.23;0.70;;;11.20;99.90;;;;;;5056829;28;20531;-37
2023/01/11 11:09:04;;;;;;;1.70;0.97;;;11.20;99.90;;;;;;5056685;28;20485;-37
2023/01/11 11:11:32;;;;;;;1.43;0.80;;;11.20;99.90;;;;;;5056219;28;20455;-37
2023/01/11 11:14:21;;;;;;;1.00;0.50;;;11.20;99.90;;;;;;5054177;28;20466;-37
2023/01/11 11:16:53;;;;;;;1.20;0.90;;;11.30;1.00;;;;;;5052085;28;20430;-38
2023/01/11 11:19:24;;;;;;;1.10;0.70;;;11.30;1.00;;;;;;5053755;28;20812;-37
2023/01/11 11:21:51;;;;;;;2.53;1.20;;;11.30;1.00;;;;;;5052400;28;20428;-37
2023/01/11 11:24:23;;;;;;;1.60;1.20;;;11.40;1.00;;;;;;5053768;28;20416;-42
2023/01/11 11:26:55;;;;;;;3.47;1.57;;;11.50;1.00;;;;;;5052142;28;20448;-37
2023/01/11 11:29:28;;;;;;;1.67;1.07;;;11.70;1.00;;;;;;5055538;28;20440;-36
2023/01/11 11:31:56;;;;;;;3.50;0.90;;;11.80;1.00;;;;;;5056379;28;20428;-37
2023/01/11 11:34:26;;;;;;;2.67;1.13;;;12.00;99.90;;;;;;5055628;28;20464;-36
2023/01/11 11:36:52;;;;;;;1.83;1.30;;;12.10;99.90;;;;;;5055191;28;20428;-36
2023/01/11 11:39:26;;;;;;;2.10;0.97;;;12.20;99.90;;;;;;5054520;28;20425;-36
2023/01/11 11:42:06;;;;;;;1.43;0.90;;;12.20;99.90;;;;;;5055750;28;20440;-36
2023/01/11 11:44:32;;;;;;;2.33;0.90;;;12.20;99.90;;;;;;5052930;28;20423;-36
2023/01/11 11:47:08;;;;;;;3.00;1.20;;;12.20;99.90;;;;;;5053844;28;20574;-36
2023/01/11 11:49:35;;;;;;;2.40;1.40;;;12.10;99.90;;;;;;5053082;28;20424;-36
2023/01/11 11:52:03;;;;;;;2.20;1.23;;;12.20;1.00;;;;;;5054386;28;20622;-36
2023/01/11 11:54:33;;;;;;;1.90;1.27;;;12.20;1.00;;;;;;5053259;28;20491;-37
2023/01/11 11:57:26;;;;;;;1.50;1.17;;;12.20;1.00;;;;;;5052164;28;20475;-36
2023/01/11 12:00:18;;;;;;;2.27;1.13;;;12.10;1.00;;;;;;5053401;28;20404;-36
2023/01/11 12:02:49;;;;;;;1.33;1.13;;;12.10;1.00;;;;;;5045572;28;20432;-37
2023/01/11 12:05:15;;;;;;;2.03;1.30;;;12.20;1.00;;;;;;5049479;28;20549;-37
2023/01/11 12:07:46;;;;;;;1.63;1.10;;;12.20;1.00;;;;;;5052185;28;20986;-36
2023/01/11 12:10:15;;;;;;;1.67;1.03;;;12.20;1.00;;;;;;5054714;28;20189;-36
2023/01/11 12:13:01;;;;;;;1.37;1.17;;;12.20;1.00;;;;;;5054408;28;20460;-35
2023/01/11 12:15:31;;;;;;;1.50;1.10;;;12.20;1.00;;;;;;5052715;28;20706;-37
2023/01/11 12:18:24;;;;;;;3.23;1.20;;;12.20;1.00;;;;;;5054254;28;20423;-36
2023/01/11 12:20:50;;;;;;;1.50;1.00;;;12.20;9.80;;;;;;5051539;28;20428;-36
2023/01/11 12:23:23;;;;;;;1.73;1.40;;;12.20;96.90;;;;;;5053231;28;20773;-35
2023/01/11 12:26:00;;;;;;;1.87;1.27;;;12.30;84.00;;;;;;5051094;28;20419;-36
2023/01/11 12:28:51;;;;;;;1.87;1.17;;;12.30;36.00;;;;;;5050405;28;20715;-37
2023/01/11 12:31:37;;;;;;;1.60;1.33;;;12.40;8.70;;;;;;5049696;28;20493;-35
2023/01/11 12:34:15;;;;;;;1.43;1.30;;;12.40;11.60;;;;;;5047153;28;20463;-36
2023/01/11 12:37:10;;;;;;;2.23;1.13;;;12.30;33.70;;;;;;5048536;28;20486;-35
2023/01/11 12:39:43;;;;;;;1.30;0.83;;;12.30;73.10;;;;;;5032618;28;20455;-36
2023/01/11 12:42:50;;;;;;;1.50;1.20;;;12.30;99.90;;;;;;5032290;28;20425;-37
2023/01/11 12:45:21;;;;;;;2.13;1.30;;;12.20;99.90;;;;;;4998213;28;21230;-36
2023/01/11 12:48:06;;;;;;;2.03;1.20;;;12.10;99.90;;;;;;5028677;28;20457;-36
2023/01/11 12:50:46;;;;;;;1.30;0.90;;;12.00;1.00;;;;;;5029051;28;20495;-36
2023/01/11 12:53:31;;;;;;;1.47;1.17;;;12.00;1.00;;;;;;5025801;28;20488;-36
2023/01/11 12:56:24;;;;;;;1.40;0.90;;;12.00;1.00;;;;;;5029573;28;20436;-37
2023/01/11 12:59:07;;;;;;;1.13;0.90;;;12.00;38.50;;;;;;5030652;28;20703;-37
2023/01/11 13:01:36;;;;;;;2.20;1.07;;;11.90;99.90;;;;;;5031105;28;20424;-36
2023/01/11 13:04:19;;;;;;;1.70;0.90;;;11.90;99.90;;;;;;5029743;28;20759;-36
2023/01/11 13:06:45;;;;;;;2.40;0.90;;;11.80;99.90;;;;;;5033163;28;20464;-36
2023/01/11 13:09:46;;;;;;;1.50;0.70;;;11.80;1.00;;;;;;5034935;28;20778;-36
2023/01/11 13:12:14;;;;;;;1.10;0.73;;;11.80;1.00;;;;;;5033453;28;20499;-35
2023/01/11 13:14:52;;;;;;;1.30;0.80;;;11.80;1.00;;;;;;5033485;28;20430;-36
2023/01/11 13:17:30;;;;;;;1.80;1.00;;;11.90;1.00;;;;;;5032863;28;20424;-36
2023/01/11 13:20:20;;;;;;;1.43;0.90;;;11.90;1.00;;;;;;5032108;28;20408;-35
2023/01/11 13:22:53;;;;;;;1.90;1.10;;;11.90;1.00;;;;;;5033148;28;20401;-35
2023/01/11 13:25:27;;;;;;;1.20;1.00;;;11.90;1.00;;;;;;5031480;28;20429;-36
2023/01/11 13:27:55;;;;;;;1.30;1.00;;;11.90;1.00;;;;;;5031961;28;20455;-36
2023/01/11 13:30:23;;;;;;;1.60;1.00;;;11.90;1.00;;;;;;5033331;28;20456;-36
2023/01/11 13:32:56;;;;;;;1.70;1.00;;;11.90;1.00;;;;;;5030305;28;20457;-36
2023/01/11 13:35:42;;;;;;;1.50;0.73;;;11.90;12.70;;;;;;5032906;28;20588;-36
2023/01/11 13:38:29;;;;;;;1.30;1.00;;;12.00;34.50;;;;;;5034925;28;20491;-36
2023/01/11 13:40:59;;;;;;;1.93;1.17;;;12.00;11.60;;;;;;5033563;28;20616;-35
2023/01/11 13:43:45;;;;;;;1.60;0.97;;;12.00;1.00;;;;;;5030388;28;20669;-36
2023/01/11 13:46:21;;;;;;;1.57;1.20;;;12.00;1.00;;;;;;5035451;28;20421;-36
2023/01/11 13:49:06;;;;;;;2.00;1.40;;;12.00;1.00;;;;;;5035627;28;20832;-36
2023/01/11 13:51:49;;;;;;;1.30;1.07;;;11.90;1.00;;;;;;5033632;28;20435;-36
2023/01/11 13:54:20;;;;;;;2.63;1.10;;;11.90;1.00;;;;;;5033457;28;20460;-36
2023/01/11 13:56:53;;;;;;;1.50;1.07;;;11.80;1.00;;;;;;5033219;28;20432;-36
2023/01/11 13:59:26;;;;;;;1.30;1.10;;;11.80;18.00;;;;;;5033672;28;20405;-35